Time;durP1;ratioP1;P1;durP2;ratioP2;P2;SDS_P1;SDS_P2;PMS_P1;PMS_P2;Temp;Humidity;BMP_temperature;BMP_pressure;BME280_temperature;BME280_humidity;BME280_pressure;Samples;Min_cycle;Max_cycle;Signal;HPM_P1;HPM_P2
2022/06/01 00:00:41;;;;;;;2.30;1.30;;;24.00;44.00;;;;;;4883652;28;89011;-68
2022/06/01 00:03:09;;;;;;;2.70;0.97;;;24.00;44.00;;;;;;4883790;28;89810;-68
2022/06/01 00:05:37;;;;;;;0.93;0.83;;;24.00;44.00;;;;;;4884500;28;88291;-68
2022/06/01 00:08:05;;;;;;;2.17;1.23;;;24.00;44.00;;;;;;4883079;28;89550;-70
2022/06/01 00:10:34;;;;;;;0.60;0.60;;;24.00;44.00;;;;;;4883629;28;89532;-68
2022/06/01 00:13:02;;;;;;;2.97;1.40;;;24.00;44.00;;;;;;4883916;28;88537;-69
2022/06/01 00:15:32;;;;;;;1.40;1.10;;;24.00;44.00;;;;;;4884326;28;88695;-68
2022/06/01 00:18:02;;;;;;;3.47;1.43;;;24.00;44.00;;;;;;4878671;28;90618;-68
2022/06/01 00:20:30;;;;;;;2.10;1.53;;;24.00;44.00;;;;;;4883498;28;90161;-68
2022/06/01 00:22:58;;;;;;;1.40;1.23;;;24.00;44.00;;;;;;4883229;28;89179;-68
2022/06/01 00:25:27;;;;;;;1.80;1.10;;;23.90;44.00;;;;;;4883430;28;88630;-69
2022/06/01 00:27:55;;;;;;;1.20;1.10;;;23.90;44.00;;;;;;4878108;28;90566;-68
2022/06/01 00:30:23;;;;;;;1.73;1.40;;;23.90;44.00;;;;;;4868909;28;90005;-68
2022/06/01 00:32:51;;;;;;;2.20;1.00;;;23.90;44.00;;;;;;4882487;28;90785;-69
2022/06/01 00:35:22;;;;;;;1.20;1.00;;;23.90;44.10;;;;;;4884415;28;88531;-68
2022/06/01 00:37:50;;;;;;;1.57;1.27;;;23.90;44.70;;;;;;4878618;28;90738;-68
2022/06/01 00:40:19;;;;;;;3.40;0.80;;;23.90;44.10;;;;;;4880418;28;93372;-68
2022/06/01 00:42:50;;;;;;;0.97;0.83;;;23.90;44.10;;;;;;4883504;28;88578;-69
2022/06/01 00:45:20;;;;;;;2.03;1.00;;;23.90;44.10;;;;;;4875863;28;89114;-69
2022/06/01 00:47:48;;;;;;;1.87;1.40;;;23.90;44.10;;;;;;4882676;28;90641;-69
2022/06/01 00:50:18;;;;;;;3.07;1.10;;;23.90;44.10;;;;;;4881383;28;88995;-68
2022/06/01 00:52:54;;;;;;;0.90;0.90;;;23.90;44.10;;;;;;4882911;28;89853;-68
2022/06/01 00:55:24;;;;;;;1.30;0.90;;;23.80;44.00;;;;;;4864746;29;88518;-68
2022/06/01 00:57:53;;;;;;;1.00;1.00;;;23.80;44.00;;;;;;4869453;28;90727;-69
2022/06/01 01:00:23;;;;;;;1.33;1.00;;;23.80;44.00;;;;;;4874869;28;90412;-68
2022/06/01 01:02:51;;;;;;;1.23;1.00;;;23.80;44.00;;;;;;4877983;28;91483;-67
2022/06/01 01:05:19;;;;;;;0.93;0.67;;;23.80;44.00;;;;;;4882272;28;88532;-68
2022/06/01 01:07:49;;;;;;;1.47;1.10;;;23.80;44.00;;;;;;4879729;28;89632;-68
2022/06/01 01:10:17;;;;;;;1.57;0.90;;;23.80;44.10;;;;;;4882650;28;91911;-68
2022/06/01 01:12:59;;;;;;;4.00;1.00;;;23.80;44.00;;;;;;4882753;28;90113;-68
2022/06/01 01:15:30;;;;;;;5.80;1.63;;;23.80;44.00;;;;;;4882642;28;88719;-67
2022/06/01 01:17:59;;;;;;;1.10;1.00;;;23.80;44.10;;;;;;4877859;28;90570;-67
2022/06/01 01:20:29;;;;;;;0.80;0.80;;;23.80;44.00;;;;;;4875031;28;90010;-68
2022/06/01 01:23:05;;;;;;;2.27;1.00;;;23.80;44.10;;;;;;4882636;28;88939;-68
2022/06/01 01:25:35;;;;;;;1.60;0.93;;;23.80;44.10;;;;;;4882994;28;88660;-67
2022/06/01 01:28:05;;;;;;;0.80;0.80;;;23.80;44.10;;;;;;4882457;28;93852;-68
2022/06/01 01:31:04;;;;;;;1.30;0.83;;;23.80;44.80;;;;;;4882895;28;91199;-68
2022/06/01 01:33:33;;;;;;;1.00;0.83;;;23.70;44.10;;;;;;4873862;28;88845;-68
2022/06/01 01:36:04;;;;;;;0.70;0.70;;;23.70;44.00;;;;;;4872565;28;88464;-68
2022/06/01 01:38:41;;;;;;;1.00;0.80;;;23.70;44.10;;;;;;4882533;28;91016;-68
2022/06/01 01:41:13;;;;;;;1.23;0.80;;;23.70;44.10;;;;;;4881899;28;90323;-68
2022/06/01 01:43:47;;;;;;;0.90;0.77;;;23.70;44.10;;;;;;4882733;28;89830;-68
2022/06/01 01:46:15;;;;;;;1.03;0.70;;;23.70;44.10;;;;;;4870204;28;88520;-68
2022/06/01 01:48:44;;;;;;;2.10;0.80;;;23.70;44.10;;;;;;4879882;28;89544;-68
2022/06/01 01:51:12;;;;;;;0.90;0.80;;;23.70;44.10;;;;;;4882225;28;89896;-68
2022/06/01 01:53:41;;;;;;;3.30;0.90;;;23.70;44.10;;;;;;4882505;28;90620;-68
2022/06/01 01:56:27;;;;;;;1.10;1.00;;;23.70;44.00;;;;;;4881317;28;89152;-67
2022/06/01 01:59:28;;;;;;;0.90;0.80;;;23.60;44.00;;;;;;4882119;28;91920;-68
2022/06/01 02:02:00;;;;;;;0.87;0.70;;;23.60;44.00;;;;;;4881917;28;90071;-68
2022/06/01 02:07:19;;;;;;;1.20;0.80;;;23.60;44.00;;;;;;4876985;28;88531;-68
2022/06/01 02:12:43;;;;;;;1.93;0.60;;;23.60;44.00;;;;;;4874206;28;89092;-68
2022/06/01 02:15:14;;;;;;;0.80;0.80;;;23.60;44.10;;;;;;4881330;28;91167;-68
2022/06/01 02:17:49;;;;;;;1.63;0.80;;;23.60;44.30;;;;;;4882763;28;89803;-68
2022/06/01 02:20:29;;;;;;;0.90;0.90;;;23.60;44.10;;;;;;4879570;28;89734;-69
2022/06/01 02:22:57;;;;;;;1.40;1.07;;;23.60;44.10;;;;;;4881756;28;90454;-68
2022/06/01 02:25:25;;;;;;;2.70;1.10;;;23.60;44.80;;;;;;4871746;28;88610;-68
2022/06/01 02:27:57;;;;;;;1.37;1.00;;;23.60;44.10;;;;;;4882635;28;88404;-68
2022/06/01 02:30:29;;;;;;;1.10;1.00;;;23.60;44.10;;;;;;4881892;28;90726;-68
2022/06/01 02:32:57;;;;;;;1.30;1.20;;;23.60;44.20;;;;;;4881045;28;89906;-68
2022/06/01 02:35:29;;;;;;;1.40;1.20;;;23.60;44.10;;;;;;4871171;28;90200;-70
2022/06/01 02:37:57;;;;;;;1.20;1.10;;;23.60;44.10;;;;;;4880755;28;88556;-68
2022/06/01 02:40:26;;;;;;;1.80;1.50;;;23.60;44.10;;;;;;4881533;28;88655;-68
2022/06/01 02:42:55;;;;;;;1.73;1.40;;;23.60;44.10;;;;;;4882698;28;89130;-69
2022/06/01 02:45:26;;;;;;;2.50;1.73;;;23.60;44.10;;;;;;4880844;28;88451;-69
2022/06/01 02:47:55;;;;;;;3.73;2.10;;;23.50;44.30;;;;;;4882079;28;89548;-69
2022/06/01 02:50:26;;;;;;;2.73;2.00;;;23.50;44.10;;;;;;4881386;28;89935;-68
2022/06/01 02:52:54;;;;;;;2.77;2.27;;;23.50;44.10;;;;;;4872229;28;91094;-69
2022/06/01 02:55:23;;;;;;;3.23;2.50;;;23.50;44.70;;;;;;4881212;28;88554;-68
2022/06/01 02:57:51;;;;;;;7.03;4.00;;;23.50;44.10;;;;;;4871314;28;88540;-68
2022/06/01 03:00:22;;;;;;;4.27;3.17;;;23.50;44.10;;;;;;4868350;28;90746;-69
2022/06/01 03:02:55;;;;;;;3.17;2.20;;;23.50;44.10;;;;;;4875694;28;89334;-68
2022/06/01 03:05:25;;;;;;;5.13;3.17;;;23.50;44.10;;;;;;4880245;28;88309;-68
2022/06/01 03:07:53;;;;;;;6.20;4.63;;;23.50;44.10;;;;;;4881787;28;88468;-70
2022/06/01 03:10:21;;;;;;;5.07;3.77;;;23.50;44.10;;;;;;4883954;28;90189;-69
2022/06/01 03:12:49;;;;;;;7.43;4.73;;;23.50;44.10;;;;;;4879711;28;90050;-69
2022/06/01 03:15:18;;;;;;;5.43;3.53;;;23.50;44.10;;;;;;4881376;28;90031;-69
2022/06/01 03:17:48;;;;;;;9.07;4.77;;;23.50;44.10;;;;;;4872783;28;88442;-69
2022/06/01 03:20:17;;;;;;;7.80;5.17;;;23.50;44.10;;;;;;4881757;28;90061;-69
2022/06/01 03:22:45;;;;;;;7.83;4.43;;;23.40;44.00;;;;;;4883882;28;90565;-68
2022/06/01 03:25:14;;;;;;;8.13;4.60;;;23.40;44.00;;;;;;4871009;28;89850;-68
2022/06/01 03:27:42;;;;;;;6.43;4.20;;;23.40;44.10;;;;;;4884870;28;88397;-68
2022/06/01 03:30:12;;;;;;;8.00;5.47;;;23.40;44.10;;;;;;4884107;28;89593;-66
2022/06/01 03:32:40;;;;;;;30.43;6.17;;;23.50;44.20;;;;;;4884821;28;89416;-66
2022/06/01 03:35:10;;;;;;;9.37;4.83;;;23.40;44.70;;;;;;4881765;28;90345;-66
2022/06/01 03:37:38;;;;;;;17.67;5.70;;;23.40;44.10;;;;;;4869459;28;90114;-65
2022/06/01 03:40:06;;;;;;;11.57;6.37;;;23.40;44.20;;;;;;4880258;28;90226;-65
2022/06/01 03:42:34;;;;;;;8.90;5.30;;;23.40;44.20;;;;;;4884146;28;88992;-67
2022/06/01 03:47:49;;;;;;;7.97;5.40;;;23.40;44.30;;;;;;4883786;28;88236;-66
2022/06/01 03:50:19;;;;;;;8.43;5.43;;;23.40;44.40;;;;;;4884405;28;89847;-65
2022/06/01 03:52:46;;;;;;;6.50;4.77;;;23.40;44.40;;;;;;4884802;28;88444;-65
2022/06/01 03:55:14;;;;;;;8.30;5.03;;;23.40;44.50;;;;;;4867662;28;92081;-67
